Time;durP1;ratioP1;P1;durP2;ratioP2;P2;SDS_P1;SDS_P2;PMS_P1;PMS_P2;Temp;Humidity;BMP_temperature;BMP_pressure;BME280_temperature;BME280_humidity;BME280_pressure;Samples;Min_cycle;Max_cycle;Signal;HPM_P1;HPM_P2
2023/12/20 00:02:06;;;;;;;16.40;9.70;;;;;;;;;;5055090;28;20483;-72
2023/12/20 00:04:32;;;;;;;16.77;9.60;;;;;;;;;;5052193;28;20590;-72
2023/12/20 00:06:59;;;;;;;21.70;11.00;;;;;;;;;;5071108;28;20495;-73
2023/12/20 00:09:25;;;;;;;14.27;10.40;;;;;;;;;;5066681;28;20475;-72
2023/12/20 00:11:51;;;;;;;13.90;8.27;;;;;;;;;;5069494;28;20512;-72
2023/12/20 00:14:18;;;;;;;14.07;8.40;;;;;;;;;;5064373;28;20479;-71
2023/12/20 00:16:46;;;;;;;12.53;7.90;;;;;;;;;;5066411;28;20476;-71
2023/12/20 00:19:12;;;;;;;12.37;6.83;;;;;;;;;;5074331;28;20448;-71
2023/12/20 00:21:38;;;;;;;14.47;6.50;;;;;;;;;;5071034;28;20534;-71
2023/12/20 00:24:05;;;;;;;11.93;7.50;;;;;;;;;;5072747;28;20535;-71
2023/12/20 00:26:32;;;;;;;11.50;6.80;;;;;;;;;;5075941;28;20498;-71
2023/12/20 00:28:58;;;;;;;9.27;6.50;;;;;;;;;;5070690;28;20498;-71
2023/12/20 00:31:24;;;;;;;10.57;6.77;;;;;;;;;;5072216;28;20472;-72
2023/12/20 00:33:52;;;;;;;13.60;6.70;;;;;;;;;;5072567;28;20500;-72
2023/12/20 00:36:19;;;;;;;7.73;5.70;;;;;;;;;;5077546;28;20464;-71
2023/12/20 00:38:45;;;;;;;15.47;8.43;;;;;;;;;;5072113;28;20452;-72
2023/12/20 00:41:12;;;;;;;10.30;6.57;;;;;;;;;;5075742;28;20546;-71
2023/12/20 00:43:38;;;;;;;10.23;5.40;;;;;;;;;;5074775;28;20478;-72
2023/12/20 00:46:04;;;;;;;7.63;5.63;;;;;;;;;;5077332;28;20490;-71
2023/12/20 00:48:31;;;;;;;8.30;4.77;;;;;;;;;;5080302;28;20475;-71
2023/12/20 00:50:59;;;;;;;8.10;5.57;;;;;;;;;;5069694;28;20534;-71
2023/12/20 00:53:25;;;;;;;13.77;5.53;;;;;;;;;;5073180;28;20499;-71
2023/12/20 00:55:51;;;;;;;8.53;5.53;;;;;;;;;;5079334;28;20519;-71
2023/12/20 00:58:18;;;;;;;11.03;4.60;;;;;;;;;;5078987;28;20487;-71
2023/12/20 01:00:44;;;;;;;15.60;5.50;;;;;;;;;;5072218;28;20464;-71
2023/12/20 01:03:10;;;;;;;12.43;6.13;;;;;;;;;;5078090;28;20488;-70
2023/12/20 01:05:37;;;;;;;13.30;5.80;;;;;;;;;;5064194;28;20585;-71
2023/12/20 01:08:05;;;;;;;7.37;5.07;;;;;;;;;;5058053;28;20513;-72
2023/12/20 01:10:31;;;;;;;13.00;5.67;;;;;;;;;;5057686;28;21048;-72
2023/12/20 01:12:57;;;;;;;12.27;5.93;;;;;;;;;;5052500;28;20570;-72
2023/12/20 01:15:23;;;;;;;10.33;5.40;;;;;;;;;;5056427;28;20476;-72
2023/12/20 01:17:51;;;;;;;6.90;4.47;;;;;;;;;;5056955;28;20218;-72
2023/12/20 01:20:19;;;;;;;5.70;4.37;;;;;;;;;;5057437;28;20484;-71
2023/12/20 01:22:46;;;;;;;9.00;4.50;;;;;;;;;;5054529;28;20480;-72
2023/12/20 01:25:14;;;;;;;6.10;4.70;;;;;;;;;;5051144;28;20444;-72
2023/12/20 01:27:40;;;;;;;5.93;3.90;;;;;;;;;;5058978;28;20487;-71
2023/12/20 01:30:07;;;;;;;7.20;4.23;;;;;;;;;;5054432;28;20456;-72
2023/12/20 01:32:33;;;;;;;10.23;5.10;;;;;;;;;;5058511;28;20544;-72
2023/12/20 01:34:59;;;;;;;7.83;4.33;;;;;;;;;;5054176;28;20492;-71
2023/12/20 01:37:26;;;;;;;8.47;5.83;;;;;;;;;;5058697;28;20483;-71
2023/12/20 01:39:52;;;;;;;7.07;4.80;;;;;;;;;;5053432;28;20215;-72
2023/12/20 01:42:21;;;;;;;15.03;5.10;;;;;;;;;;5058018;28;20460;-71
2023/12/20 01:44:48;;;;;;;5.47;4.47;;;;;;;;;;5045216;28;20486;-72
2023/12/20 01:47:14;;;;;;;8.60;4.83;;;;;;;;;;5053511;28;20464;-72
2023/12/20 01:49:41;;;;;;;6.80;4.27;;;;;;;;;;5055805;28;20516;-71
2023/12/20 01:52:07;;;;;;;9.90;4.60;;;;;;;;;;5056334;28;20531;-71
2023/12/20 01:54:35;;;;;;;6.03;3.70;;;;;;;;;;5057067;28;20495;-71
2023/12/20 01:57:02;;;;;;;10.40;4.50;;;;;;;;;;5050498;28;21123;-71
2023/12/20 01:59:30;;;;;;;8.30;3.83;;;;;;;;;;5058668;28;20495;-72
2023/12/20 02:01:56;;;;;;;4.97;3.87;;;;;;;;;;5052347;28;20516;-71
2023/12/20 02:04:23;;;;;;;8.50;4.40;;;;;;;;;;5061756;28;20467;-71
2023/12/20 02:06:53;;;;;;;9.67;3.90;;;;;;;;;;5073122;28;20460;-71
2023/12/20 02:09:19;;;;;;;4.90;3.67;;;;;;;;;;5078460;28;20454;-71
2023/12/20 02:11:46;;;;;;;9.73;3.90;;;;;;;;;;5075066;28;20479;-71
2023/12/20 02:14:12;;;;;;;15.20;4.80;;;;;;;;;;5079049;28;20448;-72
2023/12/20 02:16:40;;;;;;;7.77;5.00;;;;;;;;;;5078350;28;20559;-71
2023/12/20 02:19:10;;;;;;;5.90;3.90;;;;;;;;;;5077721;28;20531;-71
2023/12/20 02:21:38;;;;;;;6.27;4.47;;;;;;;;;;5079312;28;20453;-72
2023/12/20 02:24:04;;;;;;;11.17;3.90;;;;;;;;;;5078496;28;20511;-71
2023/12/20 02:26:32;;;;;;;9.50;4.00;;;;;;;;;;5078645;28;20471;-72
2023/12/20 02:28:59;;;;;;;6.17;3.27;;;;;;;;;;5078451;28;20464;-71
2023/12/20 02:31:26;;;;;;;5.87;4.07;;;;;;;;;;5076368;28;20534;-71
2023/12/20 02:33:52;;;;;;;9.40;4.20;;;;;;;;;;5070359;28;20531;-72
2023/12/20 02:36:18;;;;;;;9.77;4.60;;;;;;;;;;5078087;28;20519;-71
2023/12/20 02:38:46;;;;;;;5.57;3.70;;;;;;;;;;5078906;28;20483;-71
2023/12/20 02:41:13;;;;;;;4.00;2.93;;;;;;;;;;5074546;28;20494;-71
2023/12/20 02:43:39;;;;;;;8.50;3.27;;;;;;;;;;5077567;28;20524;-71
2023/12/20 02:46:06;;;;;;;11.50;4.17;;;;;;;;;;5078247;28;20495;-71
2023/12/20 02:48:32;;;;;;;8.40;3.87;;;;;;;;;;5078556;28;20476;-72
2023/12/20 02:50:58;;;;;;;9.27;3.80;;;;;;;;;;5078704;28;20515;-71
2023/12/20 02:53:25;;;;;;;9.23;4.17;;;;;;;;;;5075729;28;20507;-71
2023/12/20 02:55:52;;;;;;;7.73;3.93;;;;;;;;;;5074170;28;20523;-71
2023/12/20 02:58:19;;;;;;;10.17;3.67;;;;;;;;;;5068620;28;20536;-71
2023/12/20 03:00:45;;;;;;;8.37;4.00;;;;;;;;;;5076400;28;20475;-72
2023/12/20 03:03:12;;;;;;;10.33;4.43;;;;;;;;;;5077585;28;20499;-72
2023/12/20 03:05:38;;;;;;;5.33;3.83;;;;;;;;;;5064805;28;20480;-72
2023/12/20 03:08:05;;;;;;;13.03;5.03;;;;;;;;;;5057232;28;21011;-73
2023/12/20 03:10:31;;;;;;;9.87;4.30;;;;;;;;;;5048395;28;20549;-73
2023/12/20 03:12:59;;;;;;;13.27;4.70;;;;;;;;;;5055620;28;20569;-73
2023/12/20 03:15:25;;;;;;;11.60;4.70;;;;;;;;;;5050242;28;20492;-73
2023/12/20 03:17:51;;;;;;;7.83;4.43;;;;;;;;;;5056036;28;20455;-73
2023/12/20 03:20:18;;;;;;;9.60;4.53;;;;;;;;;;5051774;28;20489;-73
2023/12/20 03:22:44;;;;;;;7.90;5.70;;;;;;;;;;5053759;28;20793;-73
2023/12/20 03:25:11;;;;;;;15.47;6.00;;;;;;;;;;5057009;28;20548;-73
2023/12/20 03:27:38;;;;;;;11.60;5.50;;;;;;;;;;5056562;28;20445;-70
2023/12/20 03:30:06;;;;;;;10.37;5.30;;;;;;;;;;5056840;28;20452;-72
2023/12/20 03:32:33;;;;;;;15.60;7.53;;;;;;;;;;5056883;28;20472;-71
2023/12/20 03:34:59;;;;;;;8.67;5.40;;;;;;;;;;5052226;28;20508;-71
2023/12/20 03:37:26;;;;;;;12.50;5.03;;;;;;;;;;5057077;28;20492;-71
2023/12/20 03:39:52;;;;;;;17.70;7.03;;;;;;;;;;5055647;28;20489;-71
2023/12/20 03:42:18;;;;;;;11.77;5.30;;;;;;;;;;5056917;28;20477;-71
2023/12/20 03:44:45;;;;;;;15.40;5.93;;;;;;;;;;5048678;28;20564;-72
2023/12/20 03:47:12;;;;;;;9.87;5.73;;;;;;;;;;5054003;28;20468;-72
2023/12/20 03:49:39;;;;;;;8.17;6.53;;;;;;;;;;5054555;28;20469;-71
2023/12/20 03:52:05;;;;;;;9.23;5.57;;;;;;;;;;5056310;28;20532;-71
2023/12/20 03:54:32;;;;;;;13.10;6.90;;;;;;;;;;5056880;28;20555;-71
2023/12/20 03:56:58;;;;;;;16.77;7.17;;;;;;;;;;5055893;28;20567;-72
2023/12/20 03:59:24;;;;;;;13.40;7.70;;;;;;;;;;5056584;28;21370;-72
2023/12/20 04:01:51;;;;;;;14.60;6.80;;;;;;;;;;5056698;28;20453;-72
2023/12/20 04:04:17;;;;;;;12.50;7.13;;;;;;;;;;5058243;28;20492;-72
2023/12/20 04:06:44;;;;;;;13.90;6.30;;;;;;;;;;5074951;28;20466;-72
2023/12/20 04:09:10;;;;;;;19.50;7.10;;;;;;;;;;5071587;28;20536;-72
2023/12/20 04:11:37;;;;;;;19.50;7.10;;;;;;;;;;5076252;28;20456;-72
2023/12/20 04:14:04;;;;;;;16.83;6.10;;;;;;;;;;5075122;28;20540;-71
2023/12/20 04:16:31;;;;;;;17.10;7.33;;;;;;;;;;5074360;28;20519;-72
2023/12/20 04:18:57;;;;;;;11.83;7.13;;;;;;;;;;5072090;28;20488;-72
2023/12/20 04:21:25;;;;;;;10.07;6.20;;;;;;;;;;5075649;28;20491;-71
2023/12/20 04:23:51;;;;;;;9.17;5.87;;;;;;;;;;5076462;28;20576;-71
2023/12/20 04:26:18;;;;;;;18.70;6.27;;;;;;;;;;5073915;28;20547;-71
2023/12/20 04:28:44;;;;;;;12.17;6.50;;;;;;;;;;5073194;28;20491;-71
2023/12/20 04:31:10;;;;;;;10.73;7.30;;;;;;;;;;5075515;28;21286;-71
2023/12/20 04:33:37;;;;;;;16.23;6.93;;;;;;;;;;5076185;28;20542;-72
2023/12/20 04:36:04;;;;;;;12.00;7.43;;;;;;;;;;5075486;28;20571;-72
2023/12/20 04:38:32;;;;;;;8.40;5.30;;;;;;;;;;5075907;28;20460;-72
2023/12/20 04:40:58;;;;;;;8.77;5.97;;;;;;;;;;5072558;28;20515;-72
2023/12/20 04:43:25;;;;;;;9.47;6.30;;;;;;;;;;5075593;28;20479;-71
2023/12/20 04:45:51;;;;;;;14.63;5.70;;;;;;;;;;5068508;28;20488;-72
2023/12/20 04:48:17;;;;;;;11.93;5.77;;;;;;;;;;5075781;28;20520;-71
2023/12/20 04:50:44;;;;;;;12.97;5.77;;;;;;;;;;5071286;28;20477;-72
2023/12/20 04:53:10;;;;;;;13.30;6.30;;;;;;;;;;5074892;28;20487;-71
2023/12/20 04:55:39;;;;;;;13.33;6.13;;;;;;;;;;5066563;28;20516;-71
2023/12/20 04:58:05;;;;;;;7.70;5.70;;;;;;;;;;5075742;28;20464;-71
2023/12/20 05:00:31;;;;;;;14.83;5.20;;;;;;;;;;5075684;28;20498;-71
2023/12/20 05:02:58;;;;;;;13.07;5.53;;;;;;;;;;5076472;28;20483;-71
2023/12/20 05:05:24;;;;;;;10.33;5.57;;;;;;;;;;5075286;28;20858;-71
2023/12/20 05:07:51;;;;;;;13.70;6.87;;;;;;;;;;5072629;28;20531;-72
2023/12/20 05:10:17;;;;;;;9.87;5.20;;;;;;;;;;5075486;28;21105;-71
2023/12/20 05:12:45;;;;;;;15.00;6.70;;;;;;;;;;5076279;28;20535;-71
2023/12/20 05:15:11;;;;;;;16.73;5.63;;;;;;;;;;5071772;28;21133;-71
2023/12/20 05:17:38;;;;;;;15.77;5.57;;;;;;;;;;5074608;28;20547;-71
2023/12/20 05:20:04;;;;;;;12.90;5.00;;;;;;;;;;5072382;28;20516;-71
2023/12/20 05:22:31;;;;;;;12.37;6.37;;;;;;;;;;5077960;28;20829;-72
2023/12/20 05:24:57;;;;;;;13.63;5.77;;;;;;;;;;5075673;28;20535;-72
2023/12/20 05:27:23;;;;;;;13.90;5.93;;;;;;;;;;5075117;28;20488;-72
2023/12/20 05:29:51;;;;;;;20.07;5.33;;;;;;;;;;5077544;28;20446;-72
2023/12/20 05:32:18;;;;;;;11.10;5.77;;;;;;;;;;5074060;28;20487;-72
2023/12/20 05:34:44;;;;;;;11.97;5.33;;;;;;;;;;5079165;28;20475;-71
2023/12/20 05:37:11;;;;;;;18.00;6.33;;;;;;;;;;5075602;28;20534;-71
2023/12/20 05:39:37;;;;;;;16.40;5.37;;;;;;;;;;5079388;28;20585;-71
2023/12/20 05:42:04;;;;;;;19.87;7.07;;;;;;;;;;5069160;28;20736;-71
2023/12/20 05:44:30;;;;;;;17.43;5.53;;;;;;;;;;5077249;28;20523;-72
2023/12/20 05:46:58;;;;;;;18.57;5.20;;;;;;;;;;5074423;28;20555;-72
2023/12/20 05:49:24;;;;;;;8.80;4.63;;;;;;;;;;5077752;28;20547;-71
2023/12/20 05:51:51;;;;;;;19.27;7.00;;;;;;;;;;5077664;28;20490;-72
2023/12/20 05:54:18;;;;;;;19.67;4.80;;;;;;;;;;5076102;28;20482;-72
2023/12/20 05:56:44;;;;;;;9.40;5.50;;;;;;;;;;5077070;28;20483;-71
2023/12/20 05:59:10;;;;;;;14.83;7.17;;;;;;;;;;5076473;28;20973;-72
2023/12/20 06:01:37;;;;;;;9.43;4.77;;;;;;;;;;5078138;28;20503;-72
2023/12/20 06:04:04;;;;;;;18.50;5.53;;;;;;;;;;5067977;28;20543;-73
2023/12/20 06:06:31;;;;;;;12.67;5.50;;;;;;;;;;5076882;28;20482;-72
2023/12/20 06:08:57;;;;;;;22.30;6.50;;;;;;;;;;5076776;28;20466;-71
2023/12/20 06:11:24;;;;;;;15.17;5.30;;;;;;;;;;5072214;28;20563;-74
2023/12/20 06:13:51;;;;;;;10.37;5.50;;;;;;;;;;5071026;28;20511;-71
2023/12/20 06:16:19;;;;;;;11.87;5.93;;;;;;;;;;5072129;28;20463;-71
2023/12/20 06:18:45;;;;;;;11.77;5.93;;;;;;;;;;5075134;28;20491;-71
2023/12/20 06:21:14;;;;;;;10.37;6.20;;;;;;;;;;5077761;28;20504;-71
2023/12/20 06:23:40;;;;;;;16.27;5.50;;;;;;;;;;5071808;28;20530;-71
2023/12/20 06:26:07;;;;;;;13.80;7.10;;;;;;;;;;5076679;28;20527;-72
2023/12/20 06:28:33;;;;;;;16.73;6.33;;;;;;;;;;5071816;28;20529;-72
2023/12/20 06:31:00;;;;;;;14.93;6.67;;;;;;;;;;5076795;28;20980;-71
2023/12/20 06:33:26;;;;;;;12.80;6.50;;;;;;;;;;5075952;28;20483;-71
2023/12/20 06:35:53;;;;;;;18.53;6.43;;;;;;;;;;5071413;28;20534;-72
2023/12/20 06:38:21;;;;;;;14.43;6.63;;;;;;;;;;5070759;28;20549;-72
2023/12/20 06:40:48;;;;;;;14.67;5.80;;;;;;;;;;5076354;28;20486;-74
2023/12/20 06:43:14;;;;;;;19.50;6.63;;;;;;;;;;5075979;28;20452;-71
2023/12/20 06:45:40;;;;;;;14.33;5.40;;;;;;;;;;5078015;28;20472;-71
2023/12/20 06:48:07;;;;;;;18.43;7.50;;;;;;;;;;5076836;28;20523;-71
2023/12/20 06:50:33;;;;;;;11.07;6.20;;;;;;;;;;5076969;28;20470;-71
2023/12/20 06:53:06;;;;;;;22.20;6.17;;;;;;;;;;5077651;28;20827;-72
2023/12/20 06:55:34;;;;;;;13.90;7.27;;;;;;;;;;5073672;28;20491;-71
2023/12/20 06:58:01;;;;;;;12.83;6.37;;;;;;;;;;5071739;28;20525;-71
2023/12/20 07:00:28;;;;;;;14.43;6.50;;;;;;;;;;5077318;28;20512;-72
2023/12/20 07:02:54;;;;;;;15.83;7.70;;;;;;;;;;5076787;28;20460;-72
2023/12/20 07:05:21;;;;;;;14.20;6.33;;;;;;;;;;5064866;28;20481;-71
2023/12/20 07:07:47;;;;;;;15.97;6.70;;;;;;;;;;5049343;28;20461;-72
2023/12/20 07:10:14;;;;;;;10.60;6.67;;;;;;;;;;5055955;28;20469;-71
2023/12/20 07:12:41;;;;;;;17.17;6.27;;;;;;;;;;5056102;28;21041;-71
2023/12/20 07:15:08;;;;;;;13.93;5.77;;;;;;;;;;5056806;28;20603;-72
2023/12/20 07:17:35;;;;;;;16.20;7.60;;;;;;;;;;5053504;28;20544;-71
2023/12/20 07:20:03;;;;;;;11.40;6.80;;;;;;;;;;5057976;28;21011;-71
2023/12/20 07:22:29;;;;;;;14.50;6.43;;;;;;;;;;5057841;28;20453;-71
2023/12/20 07:24:56;;;;;;;17.83;7.33;;;;;;;;;;5055308;28;20529;-71
2023/12/20 07:27:22;;;;;;;12.53;6.10;;;;;;;;;;5049643;28;20475;-71
2023/12/20 07:29:50;;;;;;;10.70;6.37;;;;;;;;;;5050175;28;20806;-71
2023/12/20 07:32:16;;;;;;;14.50;6.03;;;;;;;;;;5056960;28;20535;-71
2023/12/20 07:34:43;;;;;;;16.70;6.40;;;;;;;;;;5053701;28;20531;-72
2023/12/20 07:37:10;;;;;;;16.87;6.60;;;;;;;;;;5048573;28;20516;-71
2023/12/20 07:39:36;;;;;;;12.13;6.17;;;;;;;;;;5045462;28;20457;-72
2023/12/20 07:42:03;;;;;;;13.93;5.97;;;;;;;;;;5050173;28;20491;-71
2023/12/20 07:44:29;;;;;;;19.07;6.33;;;;;;;;;;5049340;28;21247;-72
2023/12/20 07:46:57;;;;;;;14.03;5.70;;;;;;;;;;5048280;28;20449;-71
2023/12/20 07:49:24;;;;;;;9.30;5.40;;;;;;;;;;5047561;28;20463;-71
2023/12/20 07:51:50;;;;;;;8.73;4.80;;;;;;;;;;5049712;28;20540;-71
2023/12/20 07:54:17;;;;;;;12.60;5.63;;;;;;;;;;5056777;28;20477;-71
2023/12/20 07:56:43;;;;;;;24.80;6.13;;;;;;;;;;5053061;28;20461;-71
2023/12/20 07:59:10;;;;;;;11.73;5.20;;;;;;;;;;5054670;28;20471;-71
2023/12/20 08:01:36;;;;;;;11.80;5.47;;;;;;;;;;5049405;28;20481;-70
2023/12/20 08:04:04;;;;;;;11.33;5.10;;;;;;;;;;5050763;28;20568;-72
2023/12/20 08:06:30;;;;;;;10.33;5.30;;;;;;;;;;5052385;28;20553;-71
2023/12/20 08:08:57;;;;;;;10.33;5.23;;;;;;;;;;5056768;28;20540;-77
2023/12/20 08:11:23;;;;;;;15.03;5.40;;;;;;;;;;5045371;28;20485;-75
2023/12/20 08:13:49;;;;;;;16.93;5.80;;;;;;;;;;5054645;28;20477;-76
2023/12/20 08:16:17;;;;;;;12.80;6.20;;;;;;;;;;5055256;28;20521;-76
2023/12/20 08:18:43;;;;;;;11.77;5.97;;;;;;;;;;5052908;28;21095;-76
2023/12/20 08:21:11;;;;;;;11.67;5.27;;;;;;;;;;5045310;28;20467;-73
2023/12/20 08:23:38;;;;;;;16.60;6.37;;;;;;;;;;5049760;28;20462;-72
2023/12/20 08:26:05;;;;;;;16.57;5.90;;;;;;;;;;5052503;28;20461;-71
2023/12/20 08:28:32;;;;;;;15.17;6.00;;;;;;;;;;5052919;28;20556;-76
2023/12/20 08:30:58;;;;;;;18.13;5.70;;;;;;;;;;5050172;28;20925;-75
2023/12/20 08:33:25;;;;;;;12.97;5.37;;;;;;;;;;5055780;28;21182;-76
2023/12/20 08:35:51;;;;;;;17.93;4.90;;;;;;;;;;5053772;28;20485;-77
2023/12/20 08:38:19;;;;;;;13.00;5.20;;;;;;;;;;5049481;28;20529;-78
2023/12/20 08:40:45;;;;;;;10.77;5.83;;;;;;;;;;5052425;28;20460;-78
2023/12/20 08:43:12;;;;;;;9.70;5.57;;;;;;;;;;5049052;28;20491;-73
2023/12/20 08:45:38;;;;;;;13.60;7.33;;;;;;;;;;5048419;28;20500;-73
2023/12/20 08:48:05;;;;;;;13.60;5.63;;;;;;;;;;5056046;28;20887;-73
2023/12/20 08:50:32;;;;;;;16.80;6.00;;;;;;;;;;5049059;28;20445;-73
2023/12/20 08:52:58;;;;;;;13.80;5.20;;;;;;;;;;5053193;28;20964;-72
2023/12/20 08:55:26;;;;;;;16.43;5.10;;;;;;;;;;5057261;28;20547;-72
2023/12/20 08:57:53;;;;;;;22.97;7.33;;;;;;;;;;5058363;28;20503;-73
2023/12/20 09:00:20;;;;;;;9.33;5.33;;;;;;;;;;5057193;28;20508;-74
2023/12/20 09:02:47;;;;;;;15.57;6.67;;;;;;;;;;5056015;28;20460;-70
2023/12/20 09:05:13;;;;;;;15.03;5.50;;;;;;;;;;5058447;28;20504;-71
2023/12/20 09:07:40;;;;;;;11.10;5.83;;;;;;;;;;5059273;28;21048;-71
2023/12/20 09:10:06;;;;;;;14.07;5.87;;;;;;;;;;5054235;28;20527;-71
2023/12/20 09:12:34;;;;;;;15.60;6.90;;;;;;;;;;5057152;28;20460;-71
2023/12/20 09:15:02;;;;;;;11.80;6.27;;;;;;;;;;5058868;28;20902;-73
2023/12/20 09:17:28;;;;;;;13.33;6.13;;;;;;;;;;5055291;28;20491;-71
2023/12/20 09:19:55;;;;;;;20.27;6.50;;;;;;;;;;5048852;28;20457;-71
2023/12/20 09:22:21;;;;;;;28.57;7.50;;;;;;;;;;5053301;28;20539;-70
2023/12/20 09:24:48;;;;;;;15.40;6.47;;;;;;;;;;5059310;28;20914;-71
2023/12/20 09:27:14;;;;;;;19.13;6.87;;;;;;;;;;5055708;28;20993;-71
2023/12/20 09:29:42;;;;;;;17.90;7.80;;;;;;;;;;5057809;28;20480;-71
2023/12/20 09:32:09;;;;;;;13.87;7.30;;;;;;;;;;5050555;28;21046;-64
2023/12/20 09:34:37;;;;;;;12.40;6.97;;;;;;;;;;5055426;28;20481;-65
2023/12/20 09:37:04;;;;;;;19.30;6.93;;;;;;;;;;5055793;28;20484;-65
2023/12/20 09:39:31;;;;;;;22.60;6.80;;;;;;;;;;5057494;28;20460;-66
2023/12/20 09:42:01;;;;;;;14.50;6.70;;;;;;;;;;5053375;28;20456;-65
2023/12/20 09:44:28;;;;;;;15.97;7.10;;;;;;;;;;5057015;28;20445;-75
2023/12/20 09:46:56;;;;;;;15.77;7.57;;;;;;;;;;5056815;28;20481;-78
2023/12/20 09:49:23;;;;;;;14.37;7.13;;;;;;;;;;5056679;28;20484;-75
2023/12/20 09:51:51;;;;;;;17.13;6.63;;;;;;;;;;5051020;28;20452;-67
2023/12/20 09:54:18;;;;;;;13.93;6.80;;;;;;;;;;5056063;28;20722;-73
2023/12/20 09:56:44;;;;;;;27.23;8.97;;;;;;;;;;5056244;28;20950;-73
2023/12/20 09:59:11;;;;;;;14.33;6.90;;;;;;;;;;5055672;28;20532;-79
2023/12/20 10:01:39;;;;;;;19.07;6.47;;;;;;;;;;5057852;28;20484;-76
2023/12/20 10:04:08;;;;;;;14.03;7.37;;;;;;;;;;5051687;28;20453;-75
2023/12/20 10:06:35;;;;;;;14.00;6.27;;;;;;;;;;5052056;28;20445;-65
2023/12/20 10:09:02;;;;;;;13.70;7.20;;;;;;;;;;5056548;28;20591;-68
2023/12/20 10:11:29;;;;;;;10.07;6.57;;;;;;;;;;5056338;28;20547;-70
2023/12/20 10:13:59;;;;;;;21.57;7.37;;;;;;;;;;5047913;28;20837;-63
2023/12/20 10:16:26;;;;;;;18.77;6.83;;;;;;;;;;5052814;28;20974;-67
2023/12/20 10:18:53;;;;;;;13.30;7.50;;;;;;;;;;5056956;28;20460;-68
2023/12/20 10:21:21;;;;;;;12.43;6.03;;;;;;;;;;5048954;28;20528;-69
2023/12/20 10:23:49;;;;;;;12.67;5.77;;;;;;;;;;5056283;28;20456;-66
2023/12/20 10:26:20;;;;;;;15.40;5.93;;;;;;;;;;5056658;28;20480;-69
2023/12/20 10:28:46;;;;;;;17.83;6.40;;;;;;;;;;5056932;28;20476;-74
2023/12/20 10:31:26;;;;;;;17.80;6.53;;;;;;;;;;5057987;28;20516;-75
2023/12/20 10:33:52;;;;;;;15.57;5.60;;;;;;;;;;5057383;28;20479;-74
2023/12/20 10:36:21;;;;;;;17.00;7.30;;;;;;;;;;5057016;28;20584;-78
2023/12/20 10:38:50;;;;;;;11.57;5.97;;;;;;;;;;5056571;28;20936;-77
2023/12/20 10:41:17;;;;;;;17.23;5.50;;;;;;;;;;5056893;28;20564;-73
2023/12/20 10:43:44;;;;;;;9.77;5.53;;;;;;;;;;5056511;28;20513;-73
2023/12/20 10:46:10;;;;;;;8.93;4.87;;;;;;;;;;5053931;28;20529;-78
2023/12/20 10:48:37;;;;;;;8.93;5.00;;;;;;;;;;5050125;28;21007;-82
2023/12/20 10:51:05;;;;;;;9.03;5.23;;;;;;;;;;5054405;28;20480;-77
2023/12/20 10:53:33;;;;;;;14.27;5.43;;;;;;;;;;5051071;28;20491;-83
2023/12/20 10:56:01;;;;;;;15.47;5.47;;;;;;;;;;5052525;28;20511;-80
2023/12/20 10:58:28;;;;;;;12.10;3.77;;;;;;;;;;5055308;28;20476;-77
2023/12/20 11:01:01;;;;;;;9.97;4.07;;;;;;;;;;5055064;28;21177;-74
2023/12/20 11:03:29;;;;;;;9.60;4.13;;;;;;;;;;5048504;28;20453;-83
2023/12/20 11:05:59;;;;;;;8.70;4.00;;;;;;;;;;5049169;28;20511;-75
2023/12/20 11:08:29;;;;;;;8.37;4.60;;;;;;;;;;5056633;28;20457;-80
2023/12/20 11:11:00;;;;;;;7.40;4.27;;;;;;;;;;5055851;28;20489;-79
2023/12/20 11:13:29;;;;;;;11.27;3.70;;;;;;;;;;5055910;28;20480;-75
2023/12/20 11:15:56;;;;;;;9.87;3.97;;;;;;;;;;5055062;28;20559;-80
2023/12/20 11:18:29;;;;;;;10.70;4.10;;;;;;;;;;5055832;28;20460;-80
2023/12/20 11:20:55;;;;;;;6.70;4.13;;;;;;;;;;5053694;28;20571;-79
2023/12/20 11:23:22;;;;;;;10.53;5.20;;;;;;;;;;5050276;28;20544;-77
2023/12/20 11:25:49;;;;;;;9.87;4.40;;;;;;;;;;5049562;28;20524;-71
2023/12/20 11:28:21;;;;;;;22.67;4.57;;;;;;;;;;5055112;28;20480;-78
2023/12/20 11:30:48;;;;;;;16.33;4.30;;;;;;;;;;5050441;28;20449;-81
2023/12/20 11:33:15;;;;;;;7.37;3.20;;;;;;;;;;5054671;28;20553;-81
2023/12/20 11:35:41;;;;;;;12.77;4.17;;;;;;;;;;5053511;28;20476;-78
2023/12/20 11:38:08;;;;;;;7.63;4.00;;;;;;;;;;5054870;28;20540;-82
2023/12/20 11:40:35;;;;;;;11.20;3.90;;;;;;;;;;5054821;28;20453;-85
2023/12/20 11:43:02;;;;;;;12.70;3.93;;;;;;;;;;5051751;28;20490;-76
2023/12/20 11:45:30;;;;;;;16.43;4.10;;;;;;;;;;5048628;28;20540;-73
2023/12/20 11:47:57;;;;;;;11.30;4.23;;;;;;;;;;5048735;28;20453;-81
2023/12/20 11:50:24;;;;;;;12.13;4.17;;;;;;;;;;5047261;28;20467;-79
2023/12/20 11:52:51;;;;;;;6.03;3.77;;;;;;;;;;5050962;28;20448;-72
2023/12/20 11:55:18;;;;;;;8.63;4.10;;;;;;;;;;5047310;28;20545;-79
2023/12/20 11:57:44;;;;;;;9.90;4.13;;;;;;;;;;5047504;28;20441;-77
2023/12/20 12:00:11;;;;;;;10.40;4.43;;;;;;;;;;5047306;28;20488;-73
2023/12/20 12:02:39;;;;;;;9.50;3.87;;;;;;;;;;5048475;28;20505;-74
2023/12/20 12:05:06;;;;;;;12.40;4.43;;;;;;;;;;5051530;28;20577;-72
2023/12/20 12:07:32;;;;;;;9.10;4.00;;;;;;;;;;5071090;28;20487;-71
2023/12/20 12:09:59;;;;;;;7.93;3.60;;;;;;;;;;5074195;28;21002;-70
2023/12/20 12:12:27;;;;;;;8.53;3.63;;;;;;;;;;5074647;28;20467;-71
2023/12/20 12:14:53;;;;;;;7.53;3.50;;;;;;;;;;5073653;28;20452;-71
2023/12/20 12:17:19;;;;;;;16.93;4.03;;;;;;;;;;5062391;28;20524;-70
2023/12/20 12:19:47;;;;;;;6.00;3.53;;;;;;;;;;5067773;28;20532;-70
2023/12/20 12:22:15;;;;;;;9.07;4.30;;;;;;;;;;5065076;28;20523;-70
2023/12/20 12:24:42;;;;;;;5.90;3.10;;;;;;;;;;5066586;28;20455;-71
2023/12/20 12:27:08;;;;;;;7.50;3.90;;;;;;;;;;5061773;28;20502;-71
2023/12/20 12:29:35;;;;;;;11.03;4.03;;;;;;;;;;5066267;28;20979;-69
2023/12/20 12:32:02;;;;;;;9.50;3.50;;;;;;;;;;5068627;28;21115;-78
2023/12/20 12:34:28;;;;;;;18.10;4.07;;;;;;;;;;5065902;28;20461;-69
2023/12/20 12:36:56;;;;;;;8.50;4.17;;;;;;;;;;5068300;28;20582;-69
2023/12/20 12:39:24;;;;;;;9.50;4.10;;;;;;;;;;5062792;28;20468;-73
2023/12/20 12:41:50;;;;;;;7.67;3.70;;;;;;;;;;5063837;28;20516;-72
2023/12/20 12:44:17;;;;;;;9.00;3.87;;;;;;;;;;5066522;28;20448;-73
2023/12/20 12:46:44;;;;;;;5.57;3.50;;;;;;;;;;5065238;28;20451;-70
2023/12/20 12:49:10;;;;;;;11.10;4.33;;;;;;;;;;5062918;28;20543;-72
2023/12/20 12:51:36;;;;;;;11.97;3.73;;;;;;;;;;5062293;28;20515;-69
2023/12/20 12:54:05;;;;;;;17.33;4.70;;;;;;;;;;5062374;28;21023;-71
2023/12/20 12:56:31;;;;;;;12.10;5.17;;;;;;;;;;5064734;28;20514;-71
2023/12/20 12:58:58;;;;;;;11.23;3.87;;;;;;;;;;5066123;28;20531;-70
2023/12/20 13:01:24;;;;;;;7.77;3.10;;;;;;;;;;5065867;28;20461;-72
2023/12/20 13:03:51;;;;;;;14.37;4.40;;;;;;;;;;5065176;28;20455;-72
2023/12/20 13:06:17;;;;;;;8.80;3.50;;;;;;;;;;5049169;28;20542;-73
2023/12/20 13:08:44;;;;;;;13.60;4.20;;;;;;;;;;5051876;28;20463;-74
2023/12/20 13:11:12;;;;;;;11.03;3.60;;;;;;;;;;5048943;28;20479;-74
2023/12/20 13:13:39;;;;;;;11.10;3.70;;;;;;;;;;5049670;28;20943;-75
2023/12/20 13:16:06;;;;;;;4.53;3.00;;;;;;;;;;5052300;28;20513;-75
2023/12/20 13:18:32;;;;;;;9.50;2.20;;;;;;;;;;5052017;28;20457;-74
2023/12/20 13:20:59;;;;;;;4.90;1.80;;;;;;;;;;5054536;28;20437;-74
2023/12/20 13:23:25;;;;;;;5.70;2.10;;;;;;;;;;5045804;28;21102;-75
2023/12/20 13:25:51;;;;;;;1.50;1.40;;;;;;;;;;5052372;28;20455;-74
2023/12/20 13:28:19;;;;;;;5.03;1.50;;;;;;;;;;5044189;28;20543;-72
2023/12/20 13:30:46;;;;;;;5.50;1.63;;;;;;;;;;5050909;28;20456;-74
2023/12/20 13:33:12;;;;;;;2.73;1.40;;;;;;;;;;5040678;28;20490;-75
2023/12/20 13:35:39;;;;;;;4.33;1.87;;;;;;;;;;5044368;28;20568;-71
2023/12/20 13:38:05;;;;;;;4.47;1.70;;;;;;;;;;5047465;28;20917;-73
2023/12/20 13:40:32;;;;;;;10.07;2.30;;;;;;;;;;5056793;28;20451;-73
2023/12/20 13:42:58;;;;;;;9.50;2.57;;;;;;;;;;5056343;28;20534;-73
2023/12/20 13:45:26;;;;;;;3.07;1.60;;;;;;;;;;5057193;28;20548;-73
2023/12/20 13:47:52;;;;;;;6.07;2.10;;;;;;;;;;5049105;28;20472;-73
2023/12/20 13:50:19;;;;;;;5.07;2.40;;;;;;;;;;5053600;28;20505;-73
2023/12/20 13:52:46;;;;;;;3.33;1.77;;;;;;;;;;5053868;28;20449;-72
2023/12/20 13:55:12;;;;;;;8.13;2.47;;;;;;;;;;5047644;28;20488;-73
2023/12/20 13:57:39;;;;;;;5.23;2.10;;;;;;;;;;5049531;28;20493;-74
2023/12/20 14:00:12;;;;;;;7.87;2.20;;;;;;;;;;5052261;28;20444;-73
2023/12/20 14:02:40;;;;;;;2.93;1.80;;;;;;;;;;5056917;28;20460;-72
2023/12/20 14:05:07;;;;;;;7.53;1.93;;;;;;;;;;5052330;28;20544;-72
2023/12/20 14:07:33;;;;;;;2.30;1.73;;;;;;;;;;5053214;28;20436;-72
2023/12/20 14:10:00;;;;;;;4.97;1.97;;;;;;;;;;5052281;28;20437;-74
2023/12/20 14:12:28;;;;;;;7.40;1.97;;;;;;;;;;5053642;28;20461;-72
2023/12/20 14:14:55;;;;;;;6.27;2.10;;;;;;;;;;5056632;28;20453;-72
2023/12/20 14:17:22;;;;;;;6.00;1.90;;;;;;;;;;5054851;28;20484;-72
2023/12/20 14:19:51;;;;;;;1.90;1.70;;;;;;;;;;5054479;28;20477;-72
2023/12/20 14:22:18;;;;;;;6.60;1.97;;;;;;;;;;5057047;28;20465;-72
2023/12/20 14:24:45;;;;;;;3.30;1.80;;;;;;;;;;5056418;28;20861;-72
2023/12/20 14:27:12;;;;;;;4.80;1.73;;;;;;;;;;5039061;28;20533;-72
2023/12/20 14:29:38;;;;;;;4.10;2.30;;;;;;;;;;5053009;28;20734;-72
2023/12/20 14:32:06;;;;;;;5.33;2.07;;;;;;;;;;5047945;28;20541;-72
2023/12/20 14:34:32;;;;;;;5.83;2.20;;;;;;;;;;5050899;28;20451;-72